Time;durP1;ratioP1;P1;durP2;ratioP2;P2;SDS_P1;SDS_P2;PMS_P1;PMS_P2;Temp;Humidity;BMP_temperature;BMP_pressure;BME280_temperature;BME280_humidity;BME280_pressure;Samples;Min_cycle;Max_cycle;Signal;HPM_P1;HPM_P2
2023/11/08 00:01:33;;;;;;;1.83;1.00;;;23.00;57.30;;;;;;10437137;28;20231;-48
2023/11/08 00:06:41;;;;;;;1.38;1.00;;;23.10;57.30;;;;;;10400992;28;20345;-45
2023/11/08 00:11:45;;;;;;;2.28;0.88;;;23.00;57.30;;;;;;10410401;28;20200;-46
2023/11/08 00:16:49;;;;;;;2.42;1.00;;;23.10;57.30;;;;;;10440297;28;20255;-47
2023/11/08 00:21:55;;;;;;;1.95;0.90;;;23.00;57.20;;;;;;10445294;28;20585;-45
2023/11/08 00:26:59;;;;;;;1.95;0.93;;;23.00;57.20;;;;;;10440462;28;20212;-47
2023/11/08 00:32:03;;;;;;;2.38;0.98;;;23.00;57.20;;;;;;10443245;28;20280;-44
2023/11/08 00:37:09;;;;;;;2.50;1.10;;;23.10;57.30;;;;;;10441143;28;20281;-44
2023/11/08 00:42:14;;;;;;;1.58;0.80;;;23.00;57.20;;;;;;10442747;28;20247;-43
2023/11/08 00:47:18;;;;;;;0.95;0.70;;;23.00;57.20;;;;;;10436609;28;20211;-47
2023/11/08 00:52:23;;;;;;;1.00;0.70;;;23.00;57.20;;;;;;10446473;28;20235;-46
2023/11/08 00:57:27;;;;;;;1.65;1.00;;;23.00;57.20;;;;;;10435991;28;20223;-44
2023/11/08 01:02:30;;;;;;;1.85;0.70;;;23.10;57.30;;;;;;10449329;28;20584;-47
2023/11/08 01:07:35;;;;;;;2.00;0.90;;;23.00;57.20;;;;;;10447541;28;20211;-45
2023/11/08 01:12:39;;;;;;;1.55;0.93;;;23.10;57.30;;;;;;10446566;28;20211;-44
2023/11/08 01:17:42;;;;;;;1.70;0.90;;;23.00;57.20;;;;;;10447531;28;20691;-43
2023/11/08 01:22:47;;;;;;;1.60;1.05;;;23.00;57.20;;;;;;10443662;28;20255;-46
2023/11/08 01:27:51;;;;;;;2.00;0.77;;;23.10;57.30;;;;;;10436615;28;20892;-45
2023/11/08 01:32:55;;;;;;;1.10;0.70;;;23.10;57.30;;;;;;10446527;28;20249;-46
2023/11/08 01:38:00;;;;;;;0.90;0.77;;;23.00;57.20;;;;;;10446995;28;20250;-43
2023/11/08 01:43:04;;;;;;;1.15;0.63;;;23.00;57.20;;;;;;10448804;28;20688;-45
2023/11/08 01:48:07;;;;;;;1.35;0.60;;;23.00;57.20;;;;;;10449658;28;20780;-46
2023/11/08 01:53:13;;;;;;;1.27;0.82;;;23.10;57.20;;;;;;10449869;28;20626;-45
2023/11/08 01:58:17;;;;;;;1.02;0.70;;;23.00;57.80;;;;;;10438473;28;20579;-48
2023/11/08 02:03:23;;;;;;;1.30;0.82;;;23.10;57.20;;;;;;10443627;28;20622;-46
2023/11/08 02:08:28;;;;;;;1.13;0.82;;;23.00;57.10;;;;;;10433093;28;20211;-46
2023/11/08 02:13:33;;;;;;;0.82;0.73;;;23.00;57.10;;;;;;10436180;28;20204;-46
2023/11/08 02:18:36;;;;;;;1.70;0.80;;;23.00;57.10;;;;;;10433950;28;20430;-45
2023/11/08 02:23:42;;;;;;;1.23;0.98;;;23.00;57.10;;;;;;10421520;28;20200;-46
2023/11/08 02:28:47;;;;;;;1.95;0.80;;;23.00;57.10;;;;;;10441028;28;20269;-48
2023/11/08 02:33:50;;;;;;;0.90;0.80;;;23.00;57.10;;;;;;10456463;28;20274;-45
2023/11/08 02:38:55;;;;;;;0.80;0.80;;;23.00;57.10;;;;;;10451113;28;20259;-45
2023/11/08 02:44:00;;;;;;;1.95;0.52;;;23.00;57.10;;;;;;10450964;28;20200;-46
2023/11/08 02:49:06;;;;;;;1.95;0.70;;;23.00;57.10;;;;;;10455925;28;20211;-45
2023/11/08 02:54:10;;;;;;;0.98;0.65;;;23.00;57.10;;;;;;10457657;28;20203;-45
2023/11/08 02:59:15;;;;;;;1.40;0.80;;;23.00;57.10;;;;;;10454990;28;20249;-47
2023/11/08 03:04:20;;;;;;;0.82;0.60;;;23.00;57.10;;;;;;10455006;28;20241;-46
2023/11/08 03:09:23;;;;;;;1.83;0.80;;;23.00;57.70;;;;;;10453473;28;20249;-46
2023/11/08 03:14:29;;;;;;;2.78;0.80;;;23.00;57.80;;;;;;10455967;28;20199;-45
2023/11/08 03:19:33;;;;;;;0.82;0.80;;;23.00;57.10;;;;;;10451399;28;20297;-48
2023/11/08 03:24:36;;;;;;;1.40;0.73;;;23.00;57.10;;;;;;10455454;28;20204;-45
2023/11/08 03:29:42;;;;;;;2.65;0.60;;;23.00;57.10;;;;;;10452753;28;20238;-46
2023/11/08 03:34:45;;;;;;;1.00;0.70;;;23.00;57.00;;;;;;10456984;28;20751;-45
2023/11/08 03:39:50;;;;;;;0.93;0.60;;;23.00;57.00;;;;;;10461581;28;20766;-46
2023/11/08 03:44:55;;;;;;;1.58;0.60;;;23.00;57.00;;;;;;10463541;28;20225;-46
2023/11/08 03:49:59;;;;;;;0.60;0.60;;;23.00;57.00;;;;;;10451897;28;20626;-46
2023/11/08 03:55:02;;;;;;;1.23;0.70;;;23.00;57.70;;;;;;10449490;28;20238;-47
2023/11/08 04:00:09;;;;;;;1.08;0.77;;;23.00;57.00;;;;;;10443638;28;20215;-48
2023/11/08 04:05:12;;;;;;;0.63;0.57;;;23.00;57.00;;;;;;10436743;28;20203;-49
2023/11/08 04:10:16;;;;;;;1.17;0.52;;;23.00;57.00;;;;;;10441716;28;20195;-48
2023/11/08 04:15:21;;;;;;;1.25;0.77;;;23.00;57.00;;;;;;10444697;28;20223;-46
2023/11/08 04:20:25;;;;;;;0.98;0.70;;;23.00;57.00;;;;;;10439755;28;20223;-46
2023/11/08 04:25:28;;;;;;;1.40;0.70;;;23.00;57.00;;;;;;10435003;28;20211;-46
2023/11/08 04:30:33;;;;;;;0.50;0.50;;;23.00;57.00;;;;;;10448872;28;20227;-46
2023/11/08 04:35:38;;;;;;;0.90;0.60;;;23.00;57.00;;;;;;10448460;28;20243;-45
2023/11/08 04:40:42;;;;;;;0.65;0.43;;;23.00;57.00;;;;;;10447813;28;20779;-46
2023/11/08 04:45:47;;;;;;;1.13;0.80;;;23.00;57.00;;;;;;10449318;28;20219;-45
2023/11/08 04:50:51;;;;;;;1.83;0.70;;;23.00;57.00;;;;;;10441985;28;20242;-47
2023/11/08 04:55:54;;;;;;;0.98;0.45;;;23.00;57.60;;;;;;10447849;28;20254;-44
2023/11/08 05:00:59;;;;;;;1.13;0.60;;;23.00;57.60;;;;;;10449731;28;20722;-47
2023/11/08 05:06:04;;;;;;;0.80;0.60;;;23.00;57.00;;;;;;10445754;28;20223;-44
2023/11/08 05:11:07;;;;;;;1.75;0.70;;;23.00;57.00;;;;;;10448882;28;20207;-44
2023/11/08 05:16:12;;;;;;;0.70;0.60;;;23.00;57.00;;;;;;10451021;28;20242;-48
2023/11/08 05:21:16;;;;;;;0.50;0.50;;;23.00;57.00;;;;;;10446395;28;20247;-45
2023/11/08 05:26:20;;;;;;;1.30;0.68;;;23.00;57.00;;;;;;10449716;28;20223;-46
2023/11/08 05:31:25;;;;;;;2.67;0.70;;;23.00;57.00;;;;;;10448011;28;20196;-45
2023/11/08 05:36:28;;;;;;;2.25;0.80;;;23.00;57.00;;;;;;10445822;28;20223;-49
2023/11/08 05:41:32;;;;;;;1.48;0.73;;;23.00;57.00;;;;;;10444802;28;20304;-44
2023/11/08 05:46:37;;;;;;;2.00;0.88;;;23.00;57.00;;;;;;10443333;28;20267;-49
2023/11/08 05:51:41;;;;;;;1.75;0.60;;;23.00;57.00;;;;;;10444116;28;20819;-44
2023/11/08 05:56:44;;;;;;;9.50;1.20;;;23.00;57.00;;;;;;10450440;28;20223;-46
2023/11/08 06:01:49;;;;;;;1.92;0.80;;;23.00;57.00;;;;;;10446626;28;20224;-47
2023/11/08 06:06:53;;;;;;;4.38;0.77;;;23.00;57.00;;;;;;10447293;28;20288;-45
2023/11/08 06:11:56;;;;;;;7.30;1.17;;;23.00;57.00;;;;;;10453128;28;20222;-45
2023/11/08 06:17:01;;;;;;;2.00;1.02;;;23.00;57.00;;;;;;10447105;28;20219;-44
2023/11/08 06:22:05;;;;;;;2.80;1.00;;;23.00;57.00;;;;;;10441084;28;20220;-44
2023/11/08 06:27:10;;;;;;;1.75;0.73;;;23.00;57.00;;;;;;10444953;28;20242;-44
2023/11/08 06:32:19;;;;;;;1.60;0.60;;;23.00;57.00;;;;;;10453601;28;20211;-45
2023/11/08 06:37:23;;;;;;;1.40;0.70;;;23.00;57.00;;;;;;10452430;28;20219;-45
2023/11/08 06:42:26;;;;;;;2.25;0.88;;;23.00;57.00;;;;;;10444929;28;20247;-46
2023/11/08 06:47:31;;;;;;;2.10;0.77;;;23.00;57.00;;;;;;10452693;28;20242;-45
2023/11/08 06:52:35;;;;;;;5.30;1.08;;;23.00;57.00;;;;;;10456192;28;20203;-45
2023/11/08 06:57:41;;;;;;;12.07;1.55;;;23.10;57.10;;;;;;10450874;28;20245;-48
2023/11/08 07:02:46;;;;;;;8.60;1.38;;;23.00;57.00;;;;;;10455334;28;20219;-44
2023/11/08 07:07:50;;;;;;;4.90;1.20;;;23.00;57.00;;;;;;10448924;28;20247;-46
2023/11/08 07:12:55;;;;;;;6.95;1.25;;;23.00;57.00;;;;;;10455097;28;20196;-45
2023/11/08 07:18:00;;;;;;;11.15;1.88;;;23.00;57.00;;;;;;10450869;28;20219;-46
2023/11/08 07:23:04;;;;;;;6.88;1.55;;;23.10;57.00;;;;;;10452199;28;20223;-44
2023/11/08 07:28:07;;;;;;;12.80;1.85;;;23.10;57.10;;;;;;10450674;28;20215;-42
2023/11/08 07:33:12;;;;;;;6.57;1.23;;;23.10;57.10;;;;;;10431096;28;20203;-45
2023/11/08 07:38:16;;;;;;;7.20;1.60;;;23.00;57.00;;;;;;10453428;28;20678;-42
2023/11/08 07:43:20;;;;;;;6.50;1.38;;;23.00;57.00;;;;;;10448078;28;20223;-44
2023/11/08 07:48:26;;;;;;;4.78;1.55;;;23.00;57.00;;;;;;10453449;28;20219;-45
2023/11/08 07:53:29;;;;;;;10.73;1.58;;;23.00;57.00;;;;;;10450427;28;20685;-44
2023/11/08 07:58:33;;;;;;;3.58;1.30;;;23.00;57.00;;;;;;10451044;28;20219;-44
2023/11/08 08:03:38;;;;;;;6.80;1.20;;;23.10;57.40;;;;;;10442609;28;20273;-43
2023/11/08 08:08:41;;;;;;;1.52;1.02;;;23.00;57.00;;;;;;10435976;28;20273;-46
2023/11/08 08:13:45;;;;;;;3.97;1.42;;;23.00;57.00;;;;;;10425744;28;20620;-44
2023/11/08 08:18:50;;;;;;;4.80;1.23;;;23.10;57.10;;;;;;10440692;28;20220;-48
2023/11/08 08:23:55;;;;;;;4.00;1.30;;;23.00;57.00;;;;;;10448578;28;20578;-45
2023/11/08 08:29:10;;;;;;;3.67;1.20;;;23.00;57.00;;;;;;10448437;28;20273;-45
2023/11/08 08:34:15;;;;;;;2.65;1.27;;;23.00;57.00;;;;;;10444508;28;20259;-45
2023/11/08 08:39:28;;;;;;;3.35;0.98;;;23.10;57.10;;;;;;10450694;28;20242;-44
2023/11/08 08:44:33;;;;;;;1.55;1.08;;;23.00;57.00;;;;;;10459636;28;20199;-47
2023/11/08 08:49:38;;;;;;;3.35;1.23;;;23.00;57.00;;;;;;10451237;28;20286;-46
2023/11/08 08:54:41;;;;;;;3.42;0.90;;;23.00;57.60;;;;;;10441674;28;20211;-45
2023/11/08 08:59:46;;;;;;;3.00;1.23;;;23.00;57.00;;;;;;10448741;28;20227;-45
2023/11/08 09:04:52;;;;;;;1.90;1.10;;;23.00;57.00;;;;;;10446976;28;20245;-44
2023/11/08 09:09:56;;;;;;;3.17;1.13;;;23.10;57.10;;;;;;10428474;28;20220;-45
2023/11/08 09:15:02;;;;;;;2.25;1.00;;;23.00;57.00;;;;;;10443932;28;20253;-42
2023/11/08 09:20:09;;;;;;;2.20;0.95;;;23.00;57.00;;;;;;10450365;28;20243;-48
2023/11/08 09:25:13;;;;;;;2.83;1.25;;;23.10;57.20;;;;;;10447589;28;20199;-43
2023/11/08 09:30:17;;;;;;;1.67;0.80;;;23.10;57.10;;;;;;10450080;28;20207;-41
2023/11/08 09:35:24;;;;;;;3.28;1.27;;;23.10;57.10;;;;;;10450040;28;20349;-45
2023/11/08 09:40:27;;;;;;;1.85;0.98;;;23.00;57.00;;;;;;10454751;28;20268;-42
2023/11/08 09:45:34;;;;;;;1.90;0.98;;;23.10;57.10;;;;;;10457604;28;20265;-43
2023/11/08 09:50:39;;;;;;;1.98;1.35;;;23.00;57.00;;;;;;10457462;28;20195;-46
2023/11/08 09:55:44;;;;;;;2.33;1.15;;;23.10;57.10;;;;;;10454840;28;20227;-46
2023/11/08 10:00:48;;;;;;;3.20;1.10;;;23.10;57.10;;;;;;10458712;28;20255;-44
2023/11/08 10:05:56;;;;;;;3.97;1.00;;;23.10;57.10;;;;;;10455229;28;20250;-48
2023/11/08 10:11:00;;;;;;;3.80;1.27;;;23.10;57.10;;;;;;10457549;28;20755;-46
2023/11/08 10:16:05;;;;;;;3.53;1.10;;;23.10;57.10;;;;;;10454883;28;20220;-45
2023/11/08 10:21:17;;;;;;;3.05;0.95;;;23.10;57.10;;;;;;10456094;28;20702;-46
2023/11/08 10:26:23;;;;;;;3.28;1.10;;;23.10;57.20;;;;;;10453630;28;20719;-45
2023/11/08 10:31:34;;;;;;;2.92;0.73;;;23.10;57.20;;;;;;10451802;28;20269;-45
2023/11/08 10:36:40;;;;;;;2.90;1.20;;;23.10;57.20;;;;;;10454012;28;20780;-45
2023/11/08 10:41:45;;;;;;;3.83;1.10;;;23.10;57.20;;;;;;10455708;28;20271;-48
2023/11/08 10:46:57;;;;;;;4.75;1.55;;;23.10;57.20;;;;;;10453017;28;20253;-45
2023/11/08 10:52:06;;;;;;;4.10;1.08;;;23.10;57.20;;;;;;10453385;28;20674;-45
2023/11/08 10:57:13;;;;;;;4.05;1.52;;;23.10;57.10;;;;;;10452335;28;20211;-46
2023/11/08 11:02:24;;;;;;;3.55;1.60;;;23.20;57.20;;;;;;10458511;28;20223;-45
2023/11/08 11:07:30;;;;;;;2.22;1.15;;;23.10;57.20;;;;;;10456493;28;20269;-47
2023/11/08 11:12:42;;;;;;;4.07;1.45;;;23.10;57.10;;;;;;10460692;28;20200;-47
2023/11/08 11:17:50;;;;;;;3.47;1.30;;;23.10;57.20;;;;;;10455088;28;20281;-46
2023/11/08 11:22:55;;;;;;;3.75;1.40;;;23.10;57.10;;;;;;10463187;28;20590;-45
2023/11/08 11:27:59;;;;;;;4.63;1.58;;;23.20;57.20;;;;;;10465496;28;20289;-45
2023/11/08 11:33:04;;;;;;;8.27;2.55;;;23.20;57.20;;;;;;10467043;28;20218;-44
2023/11/08 11:38:26;;;;;;;6.45;2.20;;;23.20;57.20;;;;;;10469217;28;20220;-46
2023/11/08 11:43:42;;;;;;;7.18;2.78;;;23.20;57.30;;;;;;10463259;28;20238;-49
2023/11/08 11:48:45;;;;;;;6.38;2.10;;;23.20;57.30;;;;;;10472506;28;20734;-48
2023/11/08 11:53:50;;;;;;;4.28;1.85;;;23.20;57.30;;;;;;10464276;28;20211;-46
2023/11/08 11:58:54;;;;;;;8.15;2.13;;;23.20;57.30;;;;;;10452023;28;20714;-47
2023/11/08 12:03:59;;;;;;;8.60;2.22;;;23.20;57.20;;;;;;10452683;28;20223;-44
2023/11/08 12:09:05;;;;;;;9.88;2.28;;;23.20;57.30;;;;;;10446789;28;20227;-44
2023/11/08 12:14:08;;;;;;;7.20;2.40;;;23.10;57.10;;;;;;10452084;28;20659;-46
2023/11/08 12:19:15;;;;;;;5.72;2.10;;;23.20;57.30;;;;;;10453151;28;20571;-49
2023/11/08 12:24:20;;;;;;;6.53;1.70;;;23.20;57.20;;;;;;10448483;28;20215;-46
2023/11/08 12:29:24;;;;;;;5.65;1.80;;;23.20;57.20;;;;;;10449797;28;20219;-47
2023/11/08 12:34:28;;;;;;;4.63;1.88;;;23.20;57.20;;;;;;10450640;28;20245;-47
2023/11/08 12:39:33;;;;;;;4.60;1.90;;;23.20;57.20;;;;;;10444387;28;20223;-49
2023/11/08 12:44:46;;;;;;;4.15;1.58;;;23.20;57.20;;;;;;10448847;28;20242;-48
2023/11/08 12:49:50;;;;;;;5.60;1.90;;;23.10;57.10;;;;;;10446276;28;20224;-47
2023/11/08 12:54:58;;;;;;;4.72;1.27;;;23.20;57.20;;;;;;10447546;28;20683;-47
2023/11/08 13:00:02;;;;;;;4.95;1.70;;;23.10;57.10;;;;;;10452308;28;20874;-46
2023/11/08 13:05:10;;;;;;;4.75;2.05;;;23.20;57.20;;;;;;10448099;28;20266;-45
2023/11/08 13:10:16;;;;;;;4.15;1.77;;;23.20;57.20;;;;;;10450379;28;20257;-46
2023/11/08 13:15:20;;;;;;;6.93;1.60;;;23.20;57.20;;;;;;10448979;28;20800;-44
2023/11/08 13:20:28;;;;;;;6.55;1.63;;;23.20;57.20;;;;;;10451203;28;20203;-43
2023/11/08 13:25:33;;;;;;;7.20;1.95;;;23.20;57.20;;;;;;10445765;28;20251;-46
2023/11/08 13:30:38;;;;;;;4.57;1.90;;;23.20;57.30;;;;;;10450691;28;20262;-51
2023/11/08 13:35:42;;;;;;;6.35;1.92;;;23.20;57.30;;;;;;10442769;28;20230;-44
2023/11/08 13:40:47;;;;;;;5.25;1.95;;;23.20;57.30;;;;;;10450802;28;20313;-45
2023/11/08 13:45:50;;;;;;;5.78;1.83;;;23.20;57.30;;;;;;10448495;28;20633;-48
2023/11/08 13:50:54;;;;;;;7.07;1.83;;;23.20;57.30;;;;;;10445956;28;20242;-44
2023/11/08 13:56:02;;;;;;;8.00;2.35;;;23.20;57.30;;;;;;10449125;28;20296;-47
2023/11/08 14:01:08;;;;;;;9.45;2.40;;;23.20;57.30;;;;;;10452441;28;20258;-46
2023/11/08 14:06:13;;;;;;;6.03;1.70;;;23.20;57.30;;;;;;10447484;28;20335;-46
2023/11/08 14:11:19;;;;;;;6.55;2.22;;;23.20;57.30;;;;;;10448641;28;20728;-46
2023/11/08 14:16:22;;;;;;;5.13;1.90;;;23.10;57.20;;;;;;10441389;28;20783;-46
2023/11/08 14:21:26;;;;;;;3.97;1.83;;;23.20;57.30;;;;;;10415918;28;20262;-47
2023/11/08 14:26:31;;;;;;;5.65;1.95;;;23.10;57.20;;;;;;10438279;28;20273;-45
2023/11/08 14:31:35;;;;;;;6.75;1.55;;;23.10;57.10;;;;;;10436870;28;20196;-47
2023/11/08 14:36:39;;;;;;;6.00;1.80;;;23.20;57.20;;;;;;10447964;28;20788;-48
2023/11/08 14:42:02;;;;;;;4.28;1.80;;;23.10;57.10;;;;;;10450791;28;20628;-44
2023/11/08 14:47:06;;;;;;;7.13;1.92;;;23.10;57.10;;;;;;10454720;28;20285;-46
2023/11/08 14:52:09;;;;;;;5.25;1.92;;;23.10;57.10;;;;;;10455875;28;20222;-45
2023/11/08 14:57:15;;;;;;;5.82;1.83;;;23.10;57.10;;;;;;10454809;28;20223;-45
2023/11/08 15:02:18;;;;;;;7.82;2.42;;;23.10;57.10;;;;;;10454180;28;20633;-49
2023/11/08 15:07:22;;;;;;;7.85;2.38;;;23.10;57.10;;;;;;10454715;28;20211;-46
2023/11/08 15:12:47;;;;;;;6.10;2.13;;;23.10;57.10;;;;;;10453869;28;20265;-44
2023/11/08 15:17:50;;;;;;;5.20;1.88;;;23.10;57.10;;;;;;10454836;28;20703;-46
2023/11/08 15:22:56;;;;;;;5.70;1.67;;;23.10;57.20;;;;;;10451563;28;20291;-44
2023/11/08 15:28:01;;;;;;;6.38;1.80;;;23.10;57.20;;;;;;10449003;28;20634;-50
2023/11/08 15:33:05;;;;;;;4.47;1.80;;;23.10;57.20;;;;;;10463871;28;20199;-49
2023/11/08 15:38:08;;;;;;;6.22;2.08;;;23.10;57.20;;;;;;10453332;28;20223;-46
2023/11/08 15:43:16;;;;;;;5.47;2.10;;;23.10;57.80;;;;;;10454376;28;20228;-43
2023/11/08 15:48:21;;;;;;;8.05;2.40;;;23.10;57.20;;;;;;10452051;28;20238;-44
2023/11/08 15:53:24;;;;;;;5.47;2.20;;;23.10;57.20;;;;;;10454342;28;20200;-43
2023/11/08 15:58:29;;;;;;;4.75;2.03;;;23.10;57.20;;;;;;10452926;28;20654;-44
2023/11/08 16:03:33;;;;;;;3.47;1.50;;;23.10;57.20;;;;;;10452159;28;20385;-45
2023/11/08 16:08:37;;;;;;;6.47;2.00;;;23.10;57.20;;;;;;10447873;28;20798;-46
2023/11/08 16:13:42;;;;;;;5.28;1.63;;;23.10;57.20;;;;;;10447417;28;20203;-43
2023/11/08 16:18:46;;;;;;;6.32;1.98;;;23.10;57.20;;;;;;10445828;28;20219;-45
2023/11/08 16:23:53;;;;;;;4.32;1.95;;;23.10;57.20;;;;;;10447860;28;20251;-46
2023/11/08 16:28:58;;;;;;;6.18;1.83;;;23.10;57.20;;;;;;10443648;28;20227;-45
2023/11/08 16:34:02;;;;;;;3.78;1.73;;;23.10;57.30;;;;;;10453749;28;20663;-44
2023/11/08 16:39:08;;;;;;;4.07;1.55;;;23.10;57.20;;;;;;10439301;28;20243;-45
2023/11/08 16:44:13;;;;;;;5.15;1.88;;;23.10;57.20;;;;;;10440793;28;20276;-47
2023/11/08 16:49:19;;;;;;;3.70;1.50;;;23.10;57.20;;;;;;10436750;28;20817;-43
2023/11/08 16:54:23;;;;;;;3.22;1.58;;;23.10;57.20;;;;;;10429920;28;20231;-43
2023/11/08 16:59:28;;;;;;;4.75;1.45;;;23.10;57.20;;;;;;10434352;28;20312;-46
2023/11/08 17:04:35;;;;;;;3.08;1.33;;;23.10;57.20;;;;;;10429100;28;20310;-44
2023/11/08 17:09:42;;;;;;;3.70;1.70;;;23.10;57.20;;;;;;10433057;28;20220;-58
2023/11/08 17:14:48;;;;;;;3.83;1.48;;;23.10;57.30;;;;;;10434899;28;20200;-45
2023/11/08 17:19:52;;;;;;;2.80;1.60;;;23.10;57.20;;;;;;10449285;28;20227;-48
2023/11/08 17:24:56;;;;;;;3.83;1.55;;;23.10;57.30;;;;;;10452190;28;20250;-43
2023/11/08 17:30:02;;;;;;;4.13;1.20;;;23.00;57.10;;;;;;10457669;28;20195;-44
2023/11/08 17:35:09;;;;;;;4.18;1.52;;;23.10;57.30;;;;;;10456607;28;20196;-43
2023/11/08 17:40:13;;;;;;;3.38;1.45;;;23.10;57.30;;;;;;10455815;28;20257;-48
2023/11/08 17:45:20;;;;;;;5.88;1.63;;;23.10;57.20;;;;;;10464158;22;20687;-47
2023/11/08 17:50:24;;;;;;;6.50;1.50;;;23.10;57.20;;;;;;10465643;28;20250;-49
2023/11/08 17:55:28;;;;;;;7.50;1.60;;;23.10;57.30;;;;;;10439673;28;20220;-49
2023/11/08 18:00:33;;;;;;;5.55;1.45;;;23.10;57.20;;;;;;10422699;28;20200;-48
2023/11/08 18:05:37;;;;;;;3.50;1.30;;;23.10;57.20;;;;;;10423343;28;20224;-53
2023/11/08 18:10:41;;;;;;;2.97;1.20;;;23.10;57.20;;;;;;10430051;28;20672;-51
2023/11/08 18:15:47;;;;;;;7.53;1.70;;;23.10;57.20;;;;;;10434744;28;20247;-49
2023/11/08 18:20:50;;;;;;;6.93;1.88;;;23.10;57.20;;;;;;10423778;28;20211;-46
2023/11/08 18:25:54;;;;;;;5.30;1.90;;;23.10;57.20;;;;;;10438946;28;20685;-46
2023/11/08 18:30:59;;;;;;;5.30;2.38;;;23.10;57.10;;;;;;10423666;28;20262;-47
2023/11/08 18:36:03;;;;;;;5.07;2.30;;;23.10;57.10;;;;;;10448784;28;20220;-46
2023/11/08 18:41:06;;;;;;;5.72;2.70;;;23.10;57.10;;;;;;10434971;28;20200;-50
2023/11/08 18:46:11;;;;;;;5.10;3.10;;;23.10;57.10;;;;;;10435394;28;20343;-44
2023/11/08 18:51:15;;;;;;;6.93;3.08;;;23.00;57.00;;;;;;10439174;28;20258;-47
2023/11/08 18:56:20;;;;;;;5.95;2.45;;;23.00;57.10;;;;;;10424941;28;20302;-48
2023/11/08 19:01:24;;;;;;;4.43;2.63;;;23.10;57.20;;;;;;10434454;28;20728;-49
2023/11/08 19:06:29;;;;;;;8.57;2.88;;;23.00;57.00;;;;;;10417872;28;20373;-46
2023/11/08 19:11:33;;;;;;;6.00;3.03;;;23.00;57.10;;;;;;10415916;28;20265;-48
2023/11/08 19:16:39;;;;;;;7.13;3.15;;;23.00;57.00;;;;;;10439358;28;21050;-45
2023/11/08 19:21:42;;;;;;;6.30;3.00;;;23.00;57.00;;;;;;10430277;28;20229;-48
2023/11/08 19:26:46;;;;;;;3.38;2.60;;;23.00;57.10;;;;;;10430406;28;20231;-49
2023/11/08 19:31:51;;;;;;;3.83;2.55;;;23.00;57.00;;;;;;10437146;28;20574;-43
2023/11/08 19:36:55;;;;;;;4.75;2.63;;;23.00;57.00;;;;;;10426785;28;20252;-47
2023/11/08 19:41:59;;;;;;;4.68;2.60;;;23.00;57.10;;;;;;10431082;28;20586;-48
2023/11/08 19:47:05;;;;;;;4.47;3.05;;;23.00;57.00;;;;;;10436568;28;20228;-46
2023/11/08 19:52:08;;;;;;;5.13;2.50;;;23.00;57.00;;;;;;10430789;28;20200;-46
2023/11/08 19:57:12;;;;;;;6.18;2.90;;;23.00;57.00;;;;;;10436526;28;20281;-45
2023/11/08 20:02:17;;;;;;;12.25;3.50;;;23.00;57.00;;;;;;10427990;28;20207;-47
2023/11/08 20:07:21;;;;;;;8.73;2.60;;;23.00;57.00;;;;;;10422638;28;20677;-48
2023/11/08 20:12:25;;;;;;;7.45;2.80;;;23.00;57.00;;;;;;10433820;28;20233;-49
2023/11/08 20:17:30;;;;;;;11.00;3.10;;;23.00;57.30;;;;;;10428869;28;20970;-58
2023/11/08 20:22:34;;;;;;;6.60;2.35;;;23.00;57.00;;;;;;10398546;28;20228;-50
2023/11/08 20:27:38;;;;;;;5.05;2.35;;;23.00;57.00;;;;;;10426679;28;20255;-45
2023/11/08 20:32:43;;;;;;;7.45;2.47;;;23.00;57.00;;;;;;10431348;28;20204;-57
2023/11/08 20:37:47;;;;;;;3.22;2.08;;;23.00;57.00;;;;;;10423929;28;20298;-49
2023/11/08 20:42:51;;;;;;;7.13;2.28;;;23.00;57.00;;;;;;10431054;28;20258;-47
2023/11/08 20:47:56;;;;;;;7.95;2.25;;;23.00;57.00;;;;;;10428698;28;20277;-47
2023/11/08 20:53:00;;;;;;;4.28;2.25;;;23.00;57.00;;;;;;10430049;28;20201;-49
2023/11/08 20:58:04;;;;;;;3.83;1.70;;;23.00;57.00;;;;;;10395248;28;20243;-43
2023/11/08 21:03:09;;;;;;;4.10;1.85;;;23.00;57.00;;;;;;10432591;28;20234;-43
2023/11/08 21:08:13;;;;;;;5.10;2.00;;;23.00;57.70;;;;;;10438545;28;20228;-48
2023/11/08 21:13:16;;;;;;;3.88;1.75;;;23.00;57.10;;;;;;10421773;28;20200;-44
2023/11/08 21:18:21;;;;;;;3.38;1.88;;;23.00;57.00;;;;;;10414760;28;20216;-45
2023/11/08 21:23:26;;;;;;;3.40;1.50;;;23.00;57.10;;;;;;10427197;28;20257;-50
2023/11/08 21:28:30;;;;;;;3.25;1.80;;;23.00;57.10;;;;;;10386869;28;20223;-44
2023/11/08 21:33:35;;;;;;;2.63;1.42;;;23.00;57.10;;;;;;10428734;28;20243;-47
2023/11/08 21:38:42;;;;;;;19.70;2.63;;;23.00;57.10;;;;;;10431004;28;20266;-45
2023/11/08 21:43:47;;;;;;;10.52;2.38;;;23.00;57.10;;;;;;10411795;28;20309;-44
2023/11/08 21:48:52;;;;;;;8.82;2.40;;;23.00;57.10;;;;;;10404477;28;20331;-45
2023/11/08 21:53:56;;;;;;;7.95;2.42;;;23.00;57.20;;;;;;10431596;28;20207;-53
2023/11/08 21:59:00;;;;;;;10.30;2.00;;;23.00;57.20;;;;;;10436060;28;20219;-51
2023/11/08 22:04:05;;;;;;;6.60;2.08;;;23.00;57.20;;;;;;10427943;28;20208;-47
2023/11/08 22:09:10;;;;;;;3.83;2.17;;;23.00;57.20;;;;;;10388727;28;20255;-46
2023/11/08 22:14:13;;;;;;;7.40;1.90;;;23.00;57.20;;;;;;10399387;28;20200;-43
2023/11/08 22:19:18;;;;;;;2.88;1.67;;;23.00;57.20;;;;;;10402015;28;20244;-49
2023/11/08 22:24:22;;;;;;;3.47;1.45;;;23.00;57.20;;;;;;10436639;28;20222;-48
2023/11/08 22:29:26;;;;;;;5.22;1.98;;;23.00;57.20;;;;;;10438710;28;20236;-45
2023/11/08 22:34:32;;;;;;;3.30;1.60;;;23.00;57.20;;;;;;10401855;28;20243;-52
2023/11/08 22:39:35;;;;;;;2.60;1.58;;;23.00;57.20;;;;;;10410714;28;20200;-70
2023/11/08 22:44:39;;;;;;;4.28;1.70;;;23.00;57.20;;;;;;10410590;28;20235;-56
2023/11/08 22:49:44;;;;;;;1.88;1.23;;;23.00;57.20;;;;;;10431628;28;20276;-49
2023/11/08 22:54:48;;;;;;;2.75;1.60;;;23.00;57.20;;;;;;10429020;28;20204;-45
2023/11/08 22:59:52;;;;;;;4.18;1.50;;;23.00;57.20;;;;;;10435266;28;20200;-48
2023/11/08 23:04:57;;;;;;;3.78;1.30;;;23.00;57.20;;;;;;10361258;28;20252;-48
2023/11/08 23:10:01;;;;;;;1.90;1.25;;;23.00;57.30;;;;;;10418715;28;20295;-46
2023/11/08 23:15:06;;;;;;;2.92;1.42;;;23.00;57.30;;;;;;10427994;28;20238;-53
2023/11/08 23:20:16;;;;;;;2.63;1.38;;;23.00;57.30;;;;;;10438246;28;20207;-44
2023/11/08 23:25:19;;;;;;;2.38;1.30;;;23.00;57.80;;;;;;10424359;28;20725;-47
2023/11/08 23:30:23;;;;;;;3.92;1.70;;;23.00;57.30;;;;;;10434302;28;20680;-53
2023/11/08 23:35:30;;;;;;;2.33;1.40;;;23.00;57.30;;;;;;10427385;28;20215;-45
2023/11/08 23:40:34;;;;;;;2.30;1.30;;;23.00;57.30;;;;;;10428661;28;20200;-47
2023/11/08 23:45:39;;;;;;;2.15;1.30;;;23.00;57.30;;;;;;10423960;28;20740;-51
2023/11/08 23:50:44;;;;;;;1.95;1.30;;;23.00;57.20;;;;;;10430195;28;20226;-54
2023/11/08 23:55:47;;;;;;;2.35;1.40;;;23.00;57.30;;;;;;10436246;28;20250;-52
